sensor_id;sensor_type;location;lat;lon;timestamp;pressure;altitude;pressure_sealevel;temperature;humidity
59873;BME280;50750;51.636;4.948;2023-04-02T00:01:37;101271.21;;;14.15;65.79
59873;BME280;50750;51.636;4.948;2023-04-02T00:04:11;101275.98;;;14.15;65.69
59873;BME280;50750;51.636;4.948;2023-04-02T00:06:39;101278.11;;;14.14;65.51
59873;BME280;50750;51.636;4.948;2023-04-02T00:11:42;101287.30;;;14.14;65.53
59873;BME280;50750;51.636;4.948;2023-04-02T00:16:49;101293.86;;;14.12;65.55
59873;BME280;50750;51.636;4.948;2023-04-02T00:19:40;101297.92;;;14.12;65.60
59873;BME280;50750;51.636;4.948;2023-04-02T00:22:13;101301.50;;;14.11;65.62
59873;BME280;50750;51.636;4.948;2023-04-02T00:24:41;101302.58;;;14.11;65.71
59873;BME280;50750;51.636;4.948;2023-04-02T00:27:12;101306.95;;;14.11;65.75
59873;BME280;50750;51.636;4.948;2023-04-02T00:29:52;101309.93;;;14.11;65.47
59873;BME280;50750;51.636;4.948;2023-04-02T00:32:24;101316.79;;;14.12;65.49
59873;BME280;50750;51.636;4.948;2023-04-02T00:34:52;101322.95;;;14.12;65.59
59873;BME280;50750;51.636;4.948;2023-04-02T00:37:21;101327.35;;;14.12;65.46
59873;BME280;50750;51.636;4.948;2023-04-02T00:40:07;101333.20;;;14.11;65.26
59873;BME280;50750;51.636;4.948;2023-04-02T00:42:37;101338.66;;;14.11;65.52
59873;BME280;50750;51.636;4.948;2023-04-02T00:45:13;101342.04;;;14.10;65.50
59873;BME280;50750;51.636;4.948;2023-04-02T00:47:44;101347.48;;;14.10;65.35
59873;BME280;50750;51.636;4.948;2023-04-02T00:52:37;101353.38;;;14.09;65.38
59873;BME280;50750;51.636;4.948;2023-04-02T00:55:14;101355.52;;;14.08;65.59
59873;BME280;50750;51.636;4.948;2023-04-02T00:57:44;101361.15;;;14.08;65.48
59873;BME280;50750;51.636;4.948;2023-04-02T01:00:36;101358.16;;;14.08;65.38
59873;BME280;50750;51.636;4.948;2023-04-02T01:03:27;101361.66;;;14.08;65.39
59873;BME280;50750;51.636;4.948;2023-04-02T01:05:59;101365.02;;;14.08;65.33
59873;BME280;50750;51.636;4.948;2023-04-02T01:14:15;101375.92;;;14.08;65.33
59873;BME280;50750;51.636;4.948;2023-04-02T01:20:19;101387.93;;;14.07;65.26
59873;BME280;50750;51.636;4.948;2023-04-02T01:25:28;101401.55;;;14.06;65.24
59873;BME280;50750;51.636;4.948;2023-04-02T01:28:09;101406.15;;;14.05;65.20
59873;BME280;50750;51.636;4.948;2023-04-02T01:30:38;101412.66;;;14.05;65.16
59873;BME280;50750;51.636;4.948;2023-04-02T01:33:06;101413.73;;;14.05;65.20
59873;BME280;50750;51.636;4.948;2023-04-02T01:35:37;101419.16;;;14.06;64.97
59873;BME280;50750;51.636;4.948;2023-04-02T01:38:15;101422.48;;;14.06;65.00
59873;BME280;50750;51.636;4.948;2023-04-02T01:40:55;101428.65;;;14.06;64.91
59873;BME280;50750;51.636;4.948;2023-04-02T01:43:32;101436.93;;;14.06;64.97
59873;BME280;50750;51.636;4.948;2023-04-02T01:46:30;101436.40;;;14.06;64.99
59873;BME280;50750;51.636;4.948;2023-04-02T01:49:03;101447.67;;;14.06;64.76
59873;BME280;50750;51.636;4.948;2023-04-02T01:51:39;101448.91;;;14.06;64.84
59873;BME280;50750;51.636;4.948;2023-04-02T01:54:07;101451.23;;;14.05;64.77
59873;BME280;50750;51.636;4.948;2023-04-02T01:56:34;101452.83;;;14.05;64.88
59873;BME280;50750;51.636;4.948;2023-04-02T01:59:02;101457.61;;;14.04;64.91
59873;BME280;50750;51.636;4.948;2023-04-02T02:01:32;101458.70;;;14.03;64.83
59873;BME280;50750;51.636;4.948;2023-04-02T02:04:01;101458.54;;;14.02;64.88
59873;BME280;50750;51.636;4.948;2023-04-02T02:06:28;101461.04;;;14.01;64.81
59873;BME280;50750;51.636;4.948;2023-04-02T02:09:01;101464.38;;;14.02;64.83
59873;BME280;50750;51.636;4.948;2023-04-02T02:11:31;101470.91;;;14.01;64.68
59873;BME280;50750;51.636;4.948;2023-04-02T02:14:00;101476.70;;;14.01;64.85
59873;BME280;50750;51.636;4.948;2023-04-02T02:16:28;101477.25;;;14.01;64.75
59873;BME280;50750;51.636;4.948;2023-04-02T02:19:00;101483.23;;;14.01;64.92
59873;BME280;50750;51.636;4.948;2023-04-02T02:21:50;101484.09;;;14.02;64.91
59873;BME280;50750;51.636;4.948;2023-04-02T02:24:31;101490.63;;;14.01;64.88
59873;BME280;50750;51.636;4.948;2023-04-02T02:30:01;101499.65;;;14.00;64.81
59873;BME280;50750;51.636;4.948;2023-04-02T02:32:30;101501.26;;;13.99;64.87
59873;BME280;50750;51.636;4.948;2023-04-02T02:35:10;101508.30;;;13.99;64.85
59873;BME280;50750;51.636;4.948;2023-04-02T02:37:46;101514.16;;;13.98;64.82
59873;BME280;50750;51.636;4.948;2023-04-02T02:40:20;101524.20;;;13.98;64.95
59873;BME280;50750;51.636;4.948;2023-04-02T02:42:56;101527.23;;;13.97;64.87
59873;BME280;50750;51.636;4.948;2023-04-02T02:45:28;101533.90;;;13.98;64.71
59873;BME280;50750;51.636;4.948;2023-04-02T02:47:59;101536.53;;;13.98;64.98
59873;BME280;50750;51.636;4.948;2023-04-02T02:50:29;101541.80;;;13.98;64.68
59873;BME280;50750;51.636;4.948;2023-04-02T02:52:58;101542.49;;;13.98;64.78
59873;BME280;50750;51.636;4.948;2023-04-02T02:55:33;101552.52;;;13.99;64.60
59873;BME280;50750;51.636;4.948;2023-04-02T02:58:08;101557.65;;;13.98;64.64
59873;BME280;50750;51.636;4.948;2023-04-02T03:00:36;101557.14;;;13.98;64.67
59873;BME280;50750;51.636;4.948;2023-04-02T03:03:16;101564.69;;;13.98;64.56
59873;BME280;50750;51.636;4.948;2023-04-02T03:05:48;101569.46;;;13.98;64.64
59873;BME280;50750;51.636;4.948;2023-04-02T03:08:29;101578.83;;;13.97;64.49
59873;BME280;50750;51.636;4.948;2023-04-02T03:13:31;101587.52;;;13.94;64.59
59873;BME280;50750;51.636;4.948;2023-04-02T03:16:20;101594.27;;;13.92;64.62
59873;BME280;50750;51.636;4.948;2023-04-02T03:21:46;101610.66;;;13.92;64.52
59873;BME280;50750;51.636;4.948;2023-04-02T03:24:28;101614.36;;;13.92;64.51
59873;BME280;50750;51.636;4.948;2023-04-02T03:27:02;101617.67;;;13.93;64.53
59873;BME280;50750;51.636;4.948;2023-04-02T03:29:41;101624.02;;;13.93;64.56
59873;BME280;50750;51.636;4.948;2023-04-02T03:32:16;101627.87;;;13.93;64.44
59873;BME280;50750;51.636;4.948;2023-04-02T03:34:50;101630.84;;;13.94;64.51
59873;BME280;50750;51.636;4.948;2023-04-02T03:38:01;101636.30;;;13.94;64.64
59873;BME280;50750;51.636;4.948;2023-04-02T03:40:21;101635.80;;;13.93;64.40
59873;BME280;50750;51.636;4.948;2023-04-02T03:42:54;101643.91;;;13.92;64.47
59873;BME280;50750;51.636;4.948;2023-04-02T03:45:31;101649.19;;;13.92;64.38
59873;BME280;50750;51.636;4.948;2023-04-02T03:53:24;101667.23;;;13.90;64.38
59873;BME280;50750;51.636;4.948;2023-04-02T03:55:51;101670.80;;;13.89;64.27
59873;BME280;50750;51.636;4.948;2023-04-02T03:58:45;101677.32;;;13.89;64.49
59873;BME280;50750;51.636;4.948;2023-04-02T04:01:27;101682.08;;;13.88;64.25
59873;BME280;50750;51.636;4.948;2023-04-02T04:04:01;101692.28;;;13.89;64.36
59873;BME280;50750;51.636;4.948;2023-04-02T04:06:33;101698.09;;;13.89;64.32
59873;BME280;50750;51.636;4.948;2023-04-02T04:09:17;101705.67;;;13.88;64.23
59873;BME280;50750;51.636;4.948;2023-04-02T04:11:48;101710.77;;;13.89;64.19
59873;BME280;50750;51.636;4.948;2023-04-02T04:14:31;101718.88;;;13.89;64.19
59873;BME280;50750;51.636;4.948;2023-04-02T04:22:16;101736.84;;;13.88;64.08
59873;BME280;50750;51.636;4.948;2023-04-02T04:24:46;101740.55;;;13.88;64.38
59873;BME280;50750;51.636;4.948;2023-04-02T04:27:30;101748.14;;;13.87;64.23
59873;BME280;50750;51.636;4.948;2023-04-02T04:30:25;101751.34;;;13.86;64.04
59873;BME280;50750;51.636;4.948;2023-04-02T04:32:59;101754.00;;;13.85;64.26
59873;BME280;50750;51.636;4.948;2023-04-02T04:38:50;101764.09;;;13.84;64.01
59873;BME280;50750;51.636;4.948;2023-04-02T04:41:19;101770.61;;;13.83;64.22
59873;BME280;50750;51.636;4.948;2023-04-02T04:46:54;101775.88;;;13.83;64.15
59873;BME280;50750;51.636;4.948;2023-04-02T04:49:41;101778.69;;;13.84;64.22
59873;BME280;50750;51.636;4.948;2023-04-02T04:54:45;101787.10;;;13.85;63.99
59873;BME280;50750;51.636;4.948;2023-04-02T05:00:02;101799.93;;;13.86;63.82
59873;BME280;50750;51.636;4.948;2023-04-02T05:02:42;101803.46;;;13.86;63.96
59873;BME280;50750;51.636;4.948;2023-04-02T05:05:17;101807.34;;;13.86;64.01
59873;BME280;50750;51.636;4.948;2023-04-02T05:07:54;101812.83;;;13.85;63.86
59873;BME280;50750;51.636;4.948;2023-04-02T05:13:20;101825.17;;;13.84;64.01
59873;BME280;50750;51.636;4.948;2023-04-02T05:16:06;101822.19;;;13.84;64.01
59873;BME280;50750;51.636;4.948;2023-04-02T05:18:43;101829.41;;;13.83;63.98
59873;BME280;50750;51.636;4.948;2023-04-02T05:21:39;101832.27;;;13.82;63.89
59873;BME280;50750;51.636;4.948;2023-04-02T05:24:25;101837.05;;;13.81;63.82
59873;BME280;50750;51.636;4.948;2023-04-02T05:26:59;101846.20;;;13.81;63.83
59873;BME280;50750;51.636;4.948;2023-04-02T05:29:33;101852.83;;;13.83;63.86
59873;BME280;50750;51.636;4.948;2023-04-02T05:32:21;101856.34;;;13.83;63.87
59873;BME280;50750;51.636;4.948;2023-04-02T05:34:53;101867.78;;;13.83;63.75
59873;BME280;50750;51.636;4.948;2023-04-02T05:37:23;101871.83;;;13.83;63.75
59873;BME280;50750;51.636;4.948;2023-04-02T05:39:56;101875.00;;;13.84;63.76
59873;BME280;50750;51.636;4.948;2023-04-02T05:42:28;101883.63;;;13.83;63.45
59873;BME280;50750;51.636;4.948;2023-04-02T05:45:07;101889.63;;;13.84;63.63
59873;BME280;50750;51.636;4.948;2023-04-02T05:47:42;101893.14;;;13.83;63.57
59873;BME280;50750;51.636;4.948;2023-04-02T05:50:26;101896.14;;;13.83;63.60
59873;BME280;50750;51.636;4.948;2023-04-02T05:53:02;101900.20;;;13.82;63.54
59873;BME280;50750;51.636;4.948;2023-04-02T05:55:47;101907.62;;;13.82;63.62
59873;BME280;50750;51.636;4.948;2023-04-02T05:58:24;101913.98;;;13.81;63.63
59873;BME280;50750;51.636;4.948;2023-04-02T06:06:55;101936.78;;;13.78;63.50
59873;BME280;50750;51.636;4.948;2023-04-02T06:14:57;101961.31;;;13.75;63.42
59873;BME280;50750;51.636;4.948;2023-04-02T06:17:24;101962.21;;;13.74;63.52
59873;BME280;50750;51.636;4.948;2023-04-02T06:19:55;101971.17;;;13.75;63.38
59873;BME280;50750;51.636;4.948;2023-04-02T06:22:38;101975.03;;;13.75;63.31
59873;BME280;50750;51.636;4.948;2023-04-02T06:25:21;101980.66;;;13.76;63.29
59873;BME280;50750;51.636;4.948;2023-04-02T06:27:50;101989.09;;;13.77;63.21
59873;BME280;50750;51.636;4.948;2023-04-02T06:30:29;101993.13;;;13.77;63.30
59873;BME280;50750;51.636;4.948;2023-04-02T06:32:57;102000.86;;;13.77;63.12
59873;BME280;50750;51.636;4.948;2023-04-02T06:35:24;102003.86;;;13.77;63.17
59873;BME280;50750;51.636;4.948;2023-04-02T06:37:53;102005.80;;;13.77;63.06
59873;BME280;50750;51.636;4.948;2023-04-02T06:40:26;102010.04;;;13.77;63.30
59873;BME280;50750;51.636;4.948;2023-04-02T06:42:59;102015.86;;;13.76;63.15
59873;BME280;50750;51.636;4.948;2023-04-02T06:45:33;102023.98;;;13.76;63.05
59873;BME280;50750;51.636;4.948;2023-04-02T06:48:04;102023.98;;;13.75;62.99
59873;BME280;50750;51.636;4.948;2023-04-02T06:50:44;102025.23;;;13.74;63.07
59873;BME280;50750;51.636;4.948;2023-04-02T06:53:20;102025.09;;;13.73;63.13
59873;BME280;50750;51.636;4.948;2023-04-02T06:58:53;102044.81;;;13.73;63.08
59873;BME280;50750;51.636;4.948;2023-04-02T07:01:25;102044.86;;;13.71;63.14
59873;BME280;50750;51.636;4.948;2023-04-02T07:03:54;102047.35;;;13.69;63.04
59873;BME280;50750;51.636;4.948;2023-04-02T07:06:21;102055.98;;;13.69;63.03
59873;BME280;50750;51.636;4.948;2023-04-02T07:08:48;102061.09;;;13.69;63.01
59873;BME280;50750;51.636;4.948;2023-04-02T07:11:17;102070.05;;;13.69;62.96
59873;BME280;50750;51.636;4.948;2023-04-02T07:13:44;102080.95;;;13.69;63.00
59873;BME280;50750;51.636;4.948;2023-04-02T07:16:31;102086.60;;;13.69;62.86
59873;BME280;50750;51.636;4.948;2023-04-02T07:18:59;102094.49;;;13.70;62.74
59873;BME280;50750;51.636;4.948;2023-04-02T07:21:26;102098.91;;;13.70;62.81
59873;BME280;50750;51.636;4.948;2023-04-02T07:23:53;102104.72;;;13.70;62.93
59873;BME280;50750;51.636;4.948;2023-04-02T07:26:23;102107.54;;;13.70;62.78
59873;BME280;50750;51.636;4.948;2023-04-02T07:28:54;102114.23;;;13.70;62.66
59873;BME280;50750;51.636;4.948;2023-04-02T07:31:23;102116.33;;;13.70;62.73
59873;BME280;50750;51.636;4.948;2023-04-02T07:33:53;102123.92;;;13.69;62.64
59873;BME280;50750;51.636;4.948;2023-04-02T07:36:22;102125.36;;;13.68;62.47
59873;BME280;50750;51.636;4.948;2023-04-02T07:38:49;102132.75;;;13.68;62.70
59873;BME280;50750;51.636;4.948;2023-04-02T07:41:17;102136.30;;;13.67;62.47
59873;BME280;50750;51.636;4.948;2023-04-02T07:43:44;102142.99;;;13.67;62.37
59873;BME280;50750;51.636;4.948;2023-04-02T07:46:12;102147.80;;;13.65;62.74
59873;BME280;50750;51.636;4.948;2023-04-02T07:48:42;102153.42;;;13.64;62.55
59873;BME280;50750;51.636;4.948;2023-04-02T07:51:17;102157.67;;;13.63;62.63
59873;BME280;50750;51.636;4.948;2023-04-02T07:53:45;102163.86;;;13.63;62.63
59873;BME280;50750;51.636;4.948;2023-04-02T07:56:19;102162.11;;;13.62;62.63
59873;BME280;50750;51.636;4.948;2023-04-02T07:58:46;102163.02;;;13.61;62.49
59873;BME280;50750;51.636;4.948;2023-04-02T08:01:19;102172.02;;;13.60;62.63
59873;BME280;50750;51.636;4.948;2023-04-02T08:03:46;102174.30;;;13.60;62.32
59873;BME280;50750;51.636;4.948;2023-04-02T08:06:13;102174.30;;;13.60;62.52
59873;BME280;50750;51.636;4.948;2023-04-02T08:08:39;102184.30;;;13.61;62.58
59873;BME280;50750;51.636;4.948;2023-04-02T08:11:07;102182.72;;;13.61;62.63
59873;BME280;50750;51.636;4.948;2023-04-02T08:13:34;102192.39;;;13.62;62.66
59873;BME280;50750;51.636;4.948;2023-04-02T08:16:01;102198.36;;;13.62;62.57
59873;BME280;50750;51.636;4.948;2023-04-02T08:18:29;102203.82;;;13.62;62.51
59873;BME280;50750;51.636;4.948;2023-04-02T08:20:56;102206.11;;;13.62;62.40
59873;BME280;50750;51.636;4.948;2023-04-02T08:23:24;102214.39;;;13.61;62.37
59873;BME280;50750;51.636;4.948;2023-04-02T08:25:50;102216.69;;;13.61;62.17
59873;BME280;50750;51.636;4.948;2023-04-02T08:28:17;102219.70;;;13.61;62.20
59873;BME280;50750;51.636;4.948;2023-04-02T08:30:44;102221.64;;;13.60;62.38
59873;BME280;50750;51.636;4.948;2023-04-02T08:33:11;102232.91;;;13.60;62.20
59873;BME280;50750;51.636;4.948;2023-04-02T08:35:37;102239.43;;;13.60;62.31
59873;BME280;50750;51.636;4.948;2023-04-02T08:38:03;102241.39;;;13.58;62.20
59873;BME280;50750;51.636;4.948;2023-04-02T08:40:46;102244.23;;;13.57;62.19
59873;BME280;50750;51.636;4.948;2023-04-02T08:46:13;102254.30;;;13.55;62.28
59873;BME280;50750;51.636;4.948;2023-04-02T08:48:49;102261.36;;;13.54;62.32
59873;BME280;50750;51.636;4.948;2023-04-02T08:51:27;102265.95;;;13.53;62.34
59873;BME280;50750;51.636;4.948;2023-04-02T08:54:34;102271.45;;;13.52;62.39
59873;BME280;50750;51.636;4.948;2023-04-02T08:57:30;102284.66;;;13.50;62.24
59873;BME280;50750;51.636;4.948;2023-04-02T09:00:40;102293.46;;;13.50;62.36
59873;BME280;50750;51.636;4.948;2023-04-02T09:05:42;102305.28;;;13.48;62.37
59873;BME280;50750;51.636;4.948;2023-04-02T09:08:23;102310.39;;;13.49;62.36
59873;BME280;50750;51.636;4.948;2023-04-02T09:11:01;102313.73;;;13.50;62.44
59873;BME280;50750;51.636;4.948;2023-04-02T09:13:33;102312.48;;;13.50;62.39
59873;BME280;50750;51.636;4.948;2023-04-02T09:16:08;102312.81;;;13.51;62.40
59873;BME280;50750;51.636;4.948;2023-04-02T09:18:36;102318.08;;;13.52;62.39
59873;BME280;50750;51.636;4.948;2023-04-02T09:23:43;102327.02;;;13.53;62.20
59873;BME280;50750;51.636;4.948;2023-04-02T09:26:25;102333.88;;;13.54;62.14
59873;BME280;50750;51.636;4.948;2023-04-02T09:29:00;102336.86;;;13.54;62.15
59873;BME280;50750;51.636;4.948;2023-04-02T09:31:37;102345.30;;;13.55;62.05
59873;BME280;50750;51.636;4.948;2023-04-02T09:34:29;102349.17;;;13.55;62.05
59873;BME280;50750;51.636;4.948;2023-04-02T09:37:06;102351.64;;;13.55;61.96
59873;BME280;50750;51.636;4.948;2023-04-02T09:39:33;102356.57;;;13.54;62.02
59873;BME280;50750;51.636;4.948;2023-04-02T09:42:05;102353.41;;;13.54;61.86
59873;BME280;50750;51.636;4.948;2023-04-02T09:44:33;102356.07;;;13.53;62.05
59873;BME280;50750;51.636;4.948;2023-04-02T09:47:05;102359.42;;;13.53;62.10
59873;BME280;50750;51.636;4.948;2023-04-02T09:49:37;102366.31;;;13.52;61.83
59873;BME280;50750;51.636;4.948;2023-04-02T09:54:37;102376.15;;;13.51;61.94
59873;BME280;50750;51.636;4.948;2023-04-02T09:57:36;102379.16;;;13.51;62.03
59873;BME280;50750;51.636;4.948;2023-04-02T10:00:08;102383.39;;;13.50;61.96
59873;BME280;50750;51.636;4.948;2023-04-02T10:02:38;102389.57;;;13.50;62.02
59873;BME280;50750;51.636;4.948;2023-04-02T10:05:08;102392.39;;;13.49;61.77
59873;BME280;50750;51.636;4.948;2023-04-02T10:07:49;102397.85;;;13.48;62.02
59873;BME280;50750;51.636;4.948;2023-04-02T10:10:19;102403.31;;;13.48;61.92
59873;BME280;50750;51.636;4.948;2023-04-02T10:13:00;102409.31;;;13.47;62.01
59873;BME280;50750;51.636;4.948;2023-04-02T10:15:35;102413.91;;;13.47;61.93
59873;BME280;50750;51.636;4.948;2023-04-02T10:18:52;102424.48;;;13.46;62.08
59873;BME280;50750;51.636;4.948;2023-04-02T10:21:12;102426.95;;;13.46;62.04
59873;BME280;50750;51.636;4.948;2023-04-02T10:23:39;102427.64;;;13.46;62.00
59873;BME280;50750;51.636;4.948;2023-04-02T10:29:14;102431.48;;;13.48;61.97
59873;BME280;50750;51.636;4.948;2023-04-02T10:34:42;102436.91;;;13.50;61.88
59873;BME280;50750;51.636;4.948;2023-04-02T10:37:39;102440.41;;;13.51;61.73
59873;BME280;50750;51.636;4.948;2023-04-02T10:40:37;102441.11;;;13.51;61.82
59873;BME280;50750;51.636;4.948;2023-04-02T10:49:00;102449.89;;;13.51;61.95
59873;BME280;50750;51.636;4.948;2023-04-02T10:51:43;102459.22;;;13.51;61.73
59873;BME280;50750;51.636;4.948;2023-04-02T11:00:16;102477.20;;;13.50;61.70
59873;BME280;50750;51.636;4.948;2023-04-02T11:03:05;102488.48;;;13.48;61.78
59873;BME280;50750;51.636;4.948;2023-04-02T11:05:45;102491.48;;;13.47;61.79
59873;BME280;50750;51.636;4.948;2023-04-02T11:11:09;102505.59;;;13.46;61.75
59873;BME280;50750;51.636;4.948;2023-04-02T11:16:13;102513.70;;;13.44;61.70
59873;BME280;50750;51.636;4.948;2023-04-02T11:29:48;102519.73;;;13.42;61.73
59873;BME280;50750;51.636;4.948;2023-04-02T11:37:42;102527.67;;;13.40;61.75
59873;BME280;50750;51.636;4.948;2023-04-02T11:42:41;102538.45;;;13.38;60.46
59873;BME280;50750;51.636;4.948;2023-04-02T11:50:40;102553.20;;;13.29;58.90
59873;BME280;50750;51.636;4.948;2023-04-02T11:55:38;102558.30;;;13.28;59.35
59873;BME280;50750;51.636;4.948;2023-04-02T12:09:21;102558.63;;;13.30;59.90
59873;BME280;50750;51.636;4.948;2023-04-02T12:11:50;102556.17;;;13.30;60.12
59873;BME280;50750;51.636;4.948;2023-04-02T12:14:45;102563.20;;;13.30;60.17
59873;BME280;50750;51.636;4.948;2023-04-02T12:17:27;102565.31;;;13.30;60.04
59873;BME280;50750;51.636;4.948;2023-04-02T12:20:16;102569.36;;;13.30;60.44
59873;BME280;50750;51.636;4.948;2023-04-02T12:22:52;102565.66;;;13.30;60.30
59873;BME280;50750;51.636;4.948;2023-04-02T12:27:47;102574.80;;;13.31;60.51
59873;BME280;50750;51.636;4.948;2023-04-02T12:30:20;102578.31;;;13.31;60.51
59873;BME280;50750;51.636;4.948;2023-04-02T12:32:48;102582.17;;;13.31;60.41
59873;BME280;50750;51.636;4.948;2023-04-02T12:35:32;102583.08;;;13.29;58.22
59873;BME280;50750;51.636;4.948;2023-04-02T12:37:59;102584.90;;;13.23;56.72
59873;BME280;50750;51.636;4.948;2023-04-02T12:40:27;102582.14;;;13.18;55.73
59873;BME280;50750;51.636;4.948;2023-04-02T12:42:53;102586.63;;;13.13;55.46
59873;BME280;50750;51.636;4.948;2023-04-02T12:45:25;102585.83;;;13.07;54.88
59873;BME280;50750;51.636;4.948;2023-04-02T12:47:52;102590.45;;;13.02;55.10
59873;BME280;50750;51.636;4.948;2023-04-02T12:50:20;102597.70;;;12.99;55.30
59873;BME280;50750;51.636;4.948;2023-04-02T12:52:52;102593.52;;;12.96;55.02
59873;BME280;50750;51.636;4.948;2023-04-02T12:55:22;102591.10;;;12.93;54.60
59873;BME280;50750;51.636;4.948;2023-04-02T12:57:57;102586.56;;;12.90;54.45
59873;BME280;50750;51.636;4.948;2023-04-02T13:03:07;102584.90;;;12.83;54.32
59873;BME280;50750;51.636;4.948;2023-04-02T13:05:42;102583.00;;;12.79;54.38
59873;BME280;50750;51.636;4.948;2023-04-02T13:08:27;102583.93;;;12.75;54.20
59873;BME280;50750;51.636;4.948;2023-04-02T13:10:59;102587.64;;;12.73;54.31
59873;BME280;50750;51.636;4.948;2023-04-02T13:13:31;102586.10;;;12.70;54.28
59873;BME280;50750;51.636;4.948;2023-04-02T13:18:41;102590.33;;;12.69;55.26
59873;BME280;50750;51.636;4.948;2023-04-02T13:21:25;102588.73;;;12.70;55.65
59873;BME280;50750;51.636;4.948;2023-04-02T13:23:54;102590.83;;;12.72;55.94
59873;BME280;50750;51.636;4.948;2023-04-02T13:26:26;102591.67;;;12.74;56.32
59873;BME280;50750;51.636;4.948;2023-04-02T13:29:01;102597.27;;;12.76;56.61
59873;BME280;50750;51.636;4.948;2023-04-02T13:31:30;102594.08;;;12.79;57.01
59873;BME280;50750;51.636;4.948;2023-04-02T13:33:57;102597.04;;;12.80;57.12
59873;BME280;50750;51.636;4.948;2023-04-02T13:36:25;102596.51;;;12.82;57.35
59873;BME280;50750;51.636;4.948;2023-04-02T13:38:54;102596.48;;;12.84;57.52
59873;BME280;50750;51.636;4.948;2023-04-02T13:41:23;102595.05;;;12.86;57.68
59873;BME280;50750;51.636;4.948;2023-04-02T13:43:57;102593.45;;;12.88;57.70
59873;BME280;50750;51.636;4.948;2023-04-02T13:46:30;102600.29;;;12.89;57.81
59873;BME280;50750;51.636;4.948;2023-04-02T13:48:57;102600.78;;;12.91;57.99
59873;BME280;50750;51.636;4.948;2023-04-02T13:51:35;102599.36;;;12.93;57.94
59873;BME280;50750;51.636;4.948;2023-04-02T13:54:06;102601.78;;;12.95;58.21
59873;BME280;50750;51.636;4.948;2023-04-02T13:56:34;102604.60;;;12.96;58.38
59873;BME280;50750;51.636;4.948;2023-04-02T13:59:01;102604.58;;;12.97;58.46
59873;BME280;50750;51.636;4.948;2023-04-02T14:01:28;102606.85;;;12.98;58.73
59873;BME280;50750;51.636;4.948;2023-04-02T14:03:54;102610.00;;;12.99;58.86
59873;BME280;50750;51.636;4.948;2023-04-02T14:06:36;102612.44;;;13.01;58.86
59873;BME280;50750;51.636;4.948;2023-04-02T14:09:21;102615.08;;;13.02;58.98
59873;BME280;50750;51.636;4.948;2023-04-02T14:12:39;102620.52;;;13.04;59.11
59873;BME280;50750;51.636;4.948;2023-04-02T14:20:50;102624.86;;;13.08;59.37
59873;BME280;50750;51.636;4.948;2023-04-02T14:26:24;102629.58;;;13.10;59.66
59873;BME280;50750;51.636;4.948;2023-04-02T14:29:07;102631.49;;;13.11;59.59
59873;BME280;50750;51.636;4.948;2023-04-02T14:34:45;102636.05;;;13.12;60.07
59873;BME280;50750;51.636;4.948;2023-04-02T14:37:22;102642.90;;;13.13;59.99
59873;BME280;50750;51.636;4.948;2023-04-02T14:43:11;102646.58;;;13.15;59.94
59873;BME280;50750;51.636;4.948;2023-04-02T14:50:52;102657.44;;;13.18;60.21
59873;BME280;50750;51.636;4.948;2023-04-02T14:53:28;102653.55;;;13.18;59.99
59873;BME280;50750;51.636;4.948;2023-04-02T14:55:58;102653.20;;;13.18;57.86
59873;BME280;50750;51.636;4.948;2023-04-02T14:58:32;102652.17;;;13.17;56.36
59873;BME280;50750;51.636;4.948;2023-04-02T15:01:19;102650.08;;;13.16;55.26
59873;BME280;50750;51.636;4.948;2023-04-02T15:06:34;102662.42;;;13.13;54.09
59873;BME280;50750;51.636;4.948;2023-04-02T15:09:06;102661.20;;;13.13;54.02
59873;BME280;50750;51.636;4.948;2023-04-02T15:11:41;102662.60;;;13.13;54.52
59873;BME280;50750;51.636;4.948;2023-04-02T15:14:16;102662.42;;;13.13;54.91
59873;BME280;50750;51.636;4.948;2023-04-02T15:16:45;102662.77;;;13.14;55.29
59873;BME280;50750;51.636;4.948;2023-04-02T15:19:14;102661.17;;;13.15;55.57
59873;BME280;50750;51.636;4.948;2023-04-02T15:33:18;102671.35;;;13.17;55.78
59873;BME280;50750;51.636;4.948;2023-04-02T15:35:46;102674.51;;;13.17;56.22
59873;BME280;50750;51.636;4.948;2023-04-02T15:38:22;102671.52;;;13.17;56.56
59873;BME280;50750;51.636;4.948;2023-04-02T15:41:14;102671.69;;;13.18;56.84
59873;BME280;50750;51.636;4.948;2023-04-02T15:44:05;102670.11;;;13.18;57.04
59873;BME280;50750;51.636;4.948;2023-04-02T15:52:32;102686.77;;;13.21;57.85
59873;BME280;50750;51.636;4.948;2023-04-02T15:55:21;102693.98;;;13.21;58.07
59873;BME280;50750;51.636;4.948;2023-04-02T16:00:41;102698.36;;;13.24;57.98
59873;BME280;50750;51.636;4.948;2023-04-02T16:03:37;102694.14;;;13.24;58.17
59873;BME280;50750;51.636;4.948;2023-04-02T16:11:43;102709.44;;;13.27;58.21
59873;BME280;50750;51.636;4.948;2023-04-02T16:16:49;102714.69;;;13.29;58.02
59873;BME280;50750;51.636;4.948;2023-04-02T16:19:29;102716.79;;;13.29;58.15
59873;BME280;50750;51.636;4.948;2023-04-02T16:24:56;102716.08;;;13.30;58.17
59873;BME280;50750;51.636;4.948;2023-04-02T16:27:34;102714.49;;;13.31;58.36
59873;BME280;50750;51.636;4.948;2023-04-02T16:30:28;102715.55;;;13.31;58.34
59873;BME280;50750;51.636;4.948;2023-04-02T16:43:52;102735.06;;;13.33;58.78
59873;BME280;50750;51.636;4.948;2023-04-02T16:58:29;102754.39;;;13.35;57.93
59873;BME280;50750;51.636;4.948;2023-04-02T17:01:05;102757.04;;;13.34;55.56
59873;BME280;50750;51.636;4.948;2023-04-02T17:09:48;102763.05;;;13.31;55.90
59873;BME280;50750;51.636;4.948;2023-04-02T17:15:19;102773.59;;;13.32;56.60
59873;BME280;50750;51.636;4.948;2023-04-02T17:17:48;102778.69;;;13.32;57.00
59873;BME280;50750;51.636;4.948;2023-04-02T17:20:21;102787.84;;;13.32;57.18
59873;BME280;50750;51.636;4.948;2023-04-02T17:22:49;102788.72;;;13.34;57.20